Time;durP1;ratioP1;P1;durP2;ratioP2;P2;SDS_P1;SDS_P2;PMS_P1;PMS_P2;Temp;Humidity;BMP_temperature;BMP_pressure;BME280_temperature;BME280_humidity;BME280_pressure;Samples;Min_cycle;Max_cycle;Signal;HPM_P1;HPM_P2
2023/07/24 00:01:23;;;;;;;17.77;8.98;;;13.60;99.90;;;;;;5093787;28;20226;-85
2023/07/24 00:03:51;;;;;;;14.45;8.55;;;13.70;99.90;;;;;;5027607;28;20197;-85
2023/07/24 00:06:18;;;;;;;14.65;8.95;;;13.70;99.90;;;;;;5026723;28;20193;-85
2023/07/24 00:08:46;;;;;;;14.40;9.10;;;13.70;99.90;;;;;;5008598;28;20219;-85
2023/07/24 00:11:14;;;;;;;15.10;9.15;;;13.70;99.90;;;;;;5024726;28;20716;-84
2023/07/24 00:13:41;;;;;;;13.93;9.07;;;13.60;99.90;;;;;;5025868;28;20272;-85
2023/07/24 00:16:09;;;;;;;13.73;8.75;;;13.60;99.90;;;;;;5021550;28;20198;-85
2023/07/24 00:18:37;;;;;;;16.45;9.88;;;13.60;99.90;;;;;;5025731;28;20212;-85
2023/07/24 00:21:04;;;;;;;15.27;9.38;;;13.60;99.90;;;;;;5031357;28;21015;-85
2023/07/24 00:23:32;;;;;;;15.18;9.43;;;13.60;99.90;;;;;;5024484;28;20695;-85
2023/07/24 00:26:00;;;;;;;16.48;9.65;;;13.70;99.90;;;;;;5004056;28;20698;-85
2023/07/24 00:28:27;;;;;;;16.13;10.27;;;13.70;99.90;;;;;;5030788;28;20739;-85
2023/07/24 00:30:56;;;;;;;17.67;9.68;;;13.70;99.90;;;;;;5024927;28;20206;-85
2023/07/24 00:33:23;;;;;;;13.82;8.88;;;13.70;99.90;;;;;;5021197;28;20551;-85
2023/07/24 00:35:54;;;;;;;15.60;8.77;;;13.70;99.90;;;;;;5022753;28;20210;-85
2023/07/24 00:38:22;;;;;;;13.80;9.00;;;13.80;99.90;;;;;;5011170;28;20722;-84
2023/07/24 00:40:50;;;;;;;15.43;9.15;;;13.80;99.90;;;;;;5027862;28;20743;-84
2023/07/24 00:43:18;;;;;;;14.73;8.60;;;13.80;99.90;;;;;;5025247;28;20225;-84
2023/07/24 00:45:47;;;;;;;15.63;9.35;;;13.90;99.90;;;;;;5024162;28;20206;-83
2023/07/24 00:48:15;;;;;;;18.42;9.10;;;13.90;99.90;;;;;;5021105;28;20642;-84
2023/07/24 00:50:44;;;;;;;13.40;8.25;;;13.80;99.90;;;;;;5010395;28;20541;-84
2023/07/24 00:53:12;;;;;;;14.50;8.63;;;13.90;99.90;;;;;;5028989;28;20305;-84
2023/07/24 00:55:41;;;;;;;15.63;9.27;;;13.90;99.90;;;;;;5016571;28;20273;-83
2023/07/24 00:58:11;;;;;;;16.08;8.73;;;13.80;99.90;;;;;;5011290;28;20749;-84
2023/07/24 01:00:40;;;;;;;14.57;9.52;;;13.80;99.90;;;;;;5029312;28;20182;-84
2023/07/24 01:03:08;;;;;;;15.75;9.25;;;13.70;99.90;;;;;;5028072;28;20923;-85
2023/07/24 01:05:36;;;;;;;12.98;8.10;;;13.70;99.90;;;;;;5035316;28;20213;-84
2023/07/24 01:08:05;;;;;;;14.52;8.20;;;13.80;99.90;;;;;;5036965;28;20197;-84
2023/07/24 01:10:33;;;;;;;12.65;8.35;;;13.80;99.90;;;;;;5028680;28;20194;-84
2023/07/24 01:13:19;;;;;;;12.10;7.75;;;13.80;99.90;;;;;;5028568;28;20197;-84
2023/07/24 01:16:00;;;;;;;12.27;7.90;;;13.90;99.90;;;;;;5027246;28;20217;-84
2023/07/24 01:18:30;;;;;;;14.88;9.35;;;13.80;99.90;;;;;;5031306;28;20205;-84
2023/07/24 01:21:00;;;;;;;14.45;9.25;;;13.80;99.90;;;;;;5027713;28;20265;-84
2023/07/24 01:23:50;;;;;;;13.63;8.50;;;13.80;99.90;;;;;;5028558;28;20200;-84
2023/07/24 01:26:19;;;;;;;14.55;8.80;;;13.90;99.90;;;;;;5041976;28;20615;-84
2023/07/24 01:28:46;;;;;;;13.02;8.80;;;13.90;99.90;;;;;;5028368;28;20190;-84
2023/07/24 01:31:16;;;;;;;12.20;7.93;;;13.90;99.90;;;;;;5023788;28;20223;-84
2023/07/24 01:33:44;;;;;;;13.10;8.43;;;13.90;99.90;;;;;;5025013;28;20599;-84
2023/07/24 01:36:19;;;;;;;14.95;8.55;;;13.90;99.90;;;;;;5027029;28;20198;-84
2023/07/24 01:38:49;;;;;;;11.82;7.68;;;13.90;99.90;;;;;;5033876;28;20206;-83
2023/07/24 01:41:18;;;;;;;14.45;8.88;;;13.90;99.90;;;;;;5027211;28;20196;-84
2023/07/24 01:43:46;;;;;;;13.07;8.68;;;13.90;99.90;;;;;;5043449;28;20222;-86
2023/07/24 01:46:13;;;;;;;12.63;8.15;;;13.80;99.90;;;;;;5028194;28;20185;-86
2023/07/24 01:48:42;;;;;;;12.20;8.20;;;13.80;99.90;;;;;;5037453;28;20195;-85
2023/07/24 01:51:10;;;;;;;13.55;8.77;;;13.80;99.90;;;;;;5026781;28;20193;-84
2023/07/24 01:53:38;;;;;;;12.57;9.13;;;13.70;99.90;;;;;;5028088;28;20273;-85
2023/07/24 01:56:05;;;;;;;17.90;10.90;;;13.80;99.90;;;;;;5025263;28;20214;-86
2023/07/24 01:58:33;;;;;;;15.90;9.63;;;13.70;99.90;;;;;;5019332;28;20237;-86
2023/07/24 02:01:01;;;;;;;17.70;10.25;;;13.70;99.90;;;;;;5033887;28;20226;-85
2023/07/24 02:03:28;;;;;;;16.08;9.93;;;13.70;99.90;;;;;;5021640;28;20197;-85
2023/07/24 02:05:57;;;;;;;16.30;10.43;;;13.80;99.90;;;;;;5028092;28;20186;-85
2023/07/24 02:08:25;;;;;;;17.02;10.02;;;13.80;99.90;;;;;;5026608;28;20189;-86
2023/07/24 02:10:52;;;;;;;17.00;10.77;;;13.80;99.90;;;;;;5036599;28;20683;-85
2023/07/24 02:13:20;;;;;;;16.60;10.02;;;13.70;99.90;;;;;;5027877;28;20750;-85
2023/07/24 02:15:49;;;;;;;18.15;9.63;;;13.70;99.90;;;;;;5027723;28;20182;-85
2023/07/24 02:18:17;;;;;;;15.95;9.80;;;13.80;99.90;;;;;;5026114;28;20210;-85
2023/07/24 02:20:50;;;;;;;15.70;9.13;;;13.80;99.90;;;;;;5026833;28;20968;-85
2023/07/24 02:23:18;;;;;;;16.50;10.05;;;13.80;99.90;;;;;;5026149;28;20247;-84
2023/07/24 02:25:46;;;;;;;16.58;10.27;;;13.70;99.90;;;;;;5035080;28;20197;-85
2023/07/24 02:28:13;;;;;;;14.45;9.35;;;13.70;99.90;;;;;;5024761;28;20263;-85
2023/07/24 02:30:41;;;;;;;13.80;9.20;;;13.70;99.90;;;;;;5022932;28;20195;-85
2023/07/24 02:33:09;;;;;;;17.20;10.25;;;13.70;99.90;;;;;;5026004;28;20270;-85
2023/07/24 02:35:40;;;;;;;17.90;10.63;;;13.70;99.90;;;;;;5035294;28;20182;-85
2023/07/24 02:38:08;;;;;;;16.45;10.85;;;13.80;99.90;;;;;;5026590;28;20284;-85
2023/07/24 02:40:41;;;;;;;15.35;9.80;;;13.70;99.90;;;;;;5022930;28;20281;-85
2023/07/24 02:43:09;;;;;;;15.68;9.68;;;13.80;99.90;;;;;;5026108;28;20277;-85
2023/07/24 02:45:38;;;;;;;15.55;9.48;;;13.80;99.90;;;;;;5022972;28;20266;-85
2023/07/24 02:48:06;;;;;;;12.32;8.13;;;13.80;99.90;;;;;;5030130;28;20214;-86
2023/07/24 02:50:34;;;;;;;16.02;9.45;;;13.80;99.90;;;;;;4997974;28;20202;-84
2023/07/24 02:53:02;;;;;;;17.95;10.43;;;13.90;99.90;;;;;;5027438;28;20188;-84
2023/07/24 02:55:29;;;;;;;16.55;10.20;;;13.90;99.90;;;;;;5032064;28;20186;-84
2023/07/24 02:57:57;;;;;;;14.98;10.02;;;13.90;99.90;;;;;;5025975;28;20186;-84
2023/07/24 03:00:25;;;;;;;14.88;9.32;;;13.90;99.90;;;;;;5022563;28;20269;-84
2023/07/24 03:02:53;;;;;;;15.75;9.85;;;14.00;99.90;;;;;;5022821;28;20195;-84
2023/07/24 03:05:21;;;;;;;13.70;9.02;;;14.00;99.90;;;;;;5008846;28;20210;-84
2023/07/24 03:07:49;;;;;;;14.77;9.10;;;13.90;99.90;;;;;;5039645;28;20192;-83
2023/07/24 03:10:16;;;;;;;15.05;9.77;;;13.80;99.90;;;;;;5032566;28;20188;-84
2023/07/24 03:12:44;;;;;;;15.10;9.82;;;13.90;99.90;;;;;;5025826;28;20273;-84
2023/07/24 03:15:12;;;;;;;14.55;9.70;;;13.80;99.90;;;;;;5025098;28;20205;-84
2023/07/24 03:17:40;;;;;;;14.70;9.55;;;13.90;99.90;;;;;;5022894;28;20210;-85
2023/07/24 03:20:09;;;;;;;14.75;10.20;;;13.80;99.90;;;;;;5024698;28;20266;-83
2023/07/24 03:22:37;;;;;;;15.50;10.00;;;13.90;99.90;;;;;;5025585;28;20214;-83
2023/07/24 03:25:07;;;;;;;16.95;10.07;;;13.90;99.90;;;;;;5034098;28;20675;-85
2023/07/24 03:27:35;;;;;;;15.93;10.32;;;14.00;99.90;;;;;;5025355;28;20194;-85
2023/07/24 03:30:03;;;;;;;13.15;8.95;;;14.00;99.90;;;;;;5041415;28;20288;-84
2023/07/24 03:32:31;;;;;;;16.10;9.45;;;14.00;99.90;;;;;;5008950;28;20209;-84
2023/07/24 03:34:59;;;;;;;16.63;9.75;;;13.90;99.90;;;;;;5025202;28;20614;-85
2023/07/24 03:37:26;;;;;;;15.35;9.60;;;13.90;99.90;;;;;;5026662;28;20198;-84
2023/07/24 03:39:54;;;;;;;14.32;9.15;;;13.90;99.90;;;;;;5026240;28;20209;-84
2023/07/24 03:42:27;;;;;;;14.23;9.70;;;13.90;99.90;;;;;;5025123;28;20186;-84
2023/07/24 03:44:55;;;;;;;15.18;10.65;;;13.90;99.90;;;;;;5041242;28;20591;-84
2023/07/24 03:47:23;;;;;;;14.07;8.68;;;13.90;99.90;;;;;;5025071;28;20190;-84
2023/07/24 03:49:52;;;;;;;14.52;9.20;;;13.90;99.90;;;;;;5034282;28;20194;-84
2023/07/24 03:52:19;;;;;;;16.98;9.98;;;13.90;99.90;;;;;;5026639;28;20267;-84
2023/07/24 03:54:47;;;;;;;13.98;9.63;;;13.90;99.90;;;;;;5041680;28;20259;-84
2023/07/24 03:57:15;;;;;;;16.35;10.00;;;13.90;99.90;;;;;;5025910;28;20189;-83
2023/07/24 03:59:43;;;;;;;15.40;9.32;;;13.80;99.90;;;;;;5035540;28;20241;-84
2023/07/24 04:02:11;;;;;;;16.35;10.05;;;13.80;99.90;;;;;;5026225;28;20276;-84
2023/07/24 04:04:39;;;;;;;16.52;8.63;;;13.90;99.90;;;;;;5026619;28;20190;-84
2023/07/24 04:07:06;;;;;;;14.02;9.18;;;13.90;99.90;;;;;;5025557;28;20208;-84
2023/07/24 04:09:34;;;;;;;14.63;8.60;;;14.00;99.90;;;;;;5024775;28;20285;-84
2023/07/24 04:12:02;;;;;;;14.25;9.00;;;13.80;99.90;;;;;;5026401;28;20215;-83
2023/07/24 04:14:30;;;;;;;14.50;9.63;;;13.80;99.90;;;;;;5024484;28;20273;-84
2023/07/24 04:16:58;;;;;;;12.38;8.23;;;13.90;99.90;;;;;;5025883;28;20194;-84
2023/07/24 04:19:26;;;;;;;11.95;8.02;;;13.90;99.90;;;;;;5020824;28;20287;-83
2023/07/24 04:21:54;;;;;;;13.75;8.20;;;14.00;99.90;;;;;;5022331;28;20231;-84
2023/07/24 04:24:22;;;;;;;13.25;8.25;;;14.00;99.90;;;;;;5030347;28;20190;-83
2023/07/24 04:26:50;;;;;;;12.10;8.00;;;14.00;99.90;;;;;;5032814;28;20189;-84
2023/07/24 04:29:17;;;;;;;10.10;6.95;;;14.10;99.90;;;;;;5032456;28;20198;-85
2023/07/24 04:31:45;;;;;;;10.95;7.10;;;14.10;99.90;;;;;;5015380;28;20205;-84
2023/07/24 04:34:13;;;;;;;11.05;7.32;;;14.10;99.90;;;;;;5014439;28;20210;-84
2023/07/24 04:36:41;;;;;;;12.80;6.60;;;14.10;99.90;;;;;;5024026;28;20194;-83
2023/07/24 04:39:08;;;;;;;10.48;6.63;;;14.10;99.90;;;;;;5025629;28;20290;-84
2023/07/24 04:41:36;;;;;;;11.07;6.00;;;14.10;99.90;;;;;;5027747;28;20346;-84
2023/07/24 04:44:04;;;;;;;9.93;6.32;;;14.20;99.90;;;;;;5025863;28;20225;-84
2023/07/24 04:46:33;;;;;;;14.13;7.15;;;14.20;99.90;;;;;;5025379;28;20712;-84
2023/07/24 04:49:01;;;;;;;12.23;6.22;;;14.20;99.90;;;;;;5024063;28;20928;-84
2023/07/24 04:51:29;;;;;;;9.55;6.43;;;14.20;99.90;;;;;;5025204;28;20216;-84
2023/07/24 04:53:58;;;;;;;12.90;7.55;;;14.20;99.90;;;;;;5025719;28;20215;-84
2023/07/24 04:56:26;;;;;;;8.55;5.93;;;14.20;99.90;;;;;;5024185;28;20194;-84
2023/07/24 04:58:54;;;;;;;12.32;7.03;;;14.20;99.90;;;;;;5021090;28;20206;-84
2023/07/24 05:01:22;;;;;;;10.70;7.03;;;14.30;99.90;;;;;;5030870;28;20240;-84
2023/07/24 05:03:49;;;;;;;11.10;7.40;;;14.30;99.90;;;;;;5023857;28;20186;-84
2023/07/24 05:06:17;;;;;;;10.93;6.75;;;14.20;99.90;;;;;;5020708;28;20194;-84
2023/07/24 05:08:45;;;;;;;10.27;6.47;;;14.20;99.90;;;;;;5021251;28;20186;-85
2023/07/24 05:11:12;;;;;;;10.68;6.03;;;14.30;99.90;;;;;;5016020;28;20267;-84
2023/07/24 05:13:40;;;;;;;9.85;5.93;;;14.30;99.90;;;;;;5023092;28;20202;-85
2023/07/24 05:16:08;;;;;;;9.05;5.63;;;14.30;99.90;;;;;;5037071;28;20637;-83
2023/07/24 05:18:36;;;;;;;10.77;6.18;;;14.30;99.90;;;;;;5039778;28;20191;-84
2023/07/24 05:21:06;;;;;;;9.38;5.78;;;14.30;99.90;;;;;;5024005;28;20190;-85
2023/07/24 05:23:34;;;;;;;9.30;6.32;;;14.30;99.90;;;;;;5007515;28;20330;-85
2023/07/24 05:26:03;;;;;;;8.98;5.95;;;14.40;99.90;;;;;;5000156;28;20204;-85
2023/07/24 05:28:32;;;;;;;8.82;6.18;;;14.40;99.90;;;;;;5018665;28;20545;-84
2023/07/24 05:31:04;;;;;;;9.07;6.57;;;14.40;99.90;;;;;;5020914;28;20715;-84
2023/07/24 05:33:32;;;;;;;9.35;6.65;;;14.50;99.90;;;;;;5022620;28;20222;-85
2023/07/24 05:36:02;;;;;;;10.35;6.05;;;14.50;99.90;;;;;;5023790;28;20273;-84
2023/07/24 05:38:30;;;;;;;9.90;6.65;;;14.50;99.90;;;;;;5024355;28;20183;-83
2023/07/24 05:41:02;;;;;;;7.82;5.55;;;14.50;99.90;;;;;;5018923;28;20242;-83
2023/07/24 05:43:31;;;;;;;9.48;6.03;;;14.40;99.90;;;;;;5027922;28;20214;-84
2023/07/24 05:45:59;;;;;;;9.48;6.35;;;14.40;99.90;;;;;;5027310;28;20617;-84
2023/07/24 05:48:27;;;;;;;12.52;6.95;;;14.40;99.90;;;;;;5028258;28;20235;-84
2023/07/24 05:50:55;;;;;;;10.60;6.15;;;14.40;99.90;;;;;;5028345;28;20205;-83
2023/07/24 05:53:22;;;;;;;8.13;6.10;;;14.40;99.90;;;;;;5028712;28;20280;-83
2023/07/24 05:56:01;;;;;;;10.13;5.68;;;14.50;99.90;;;;;;5024873;28;20260;-84
2023/07/24 05:58:29;;;;;;;9.27;6.00;;;14.50;99.90;;;;;;5039376;28;20204;-84
2023/07/24 06:00:57;;;;;;;8.23;5.70;;;14.50;99.90;;;;;;5020448;28;20214;-83
2023/07/24 06:03:25;;;;;;;8.10;5.38;;;14.60;99.90;;;;;;5021773;28;20182;-84
2023/07/24 06:05:54;;;;;;;9.18;5.60;;;14.60;99.90;;;;;;5024996;28;20187;-84
2023/07/24 06:08:22;;;;;;;10.25;5.55;;;14.60;99.90;;;;;;5026122;27;20214;-83
2023/07/24 06:10:50;;;;;;;9.82;5.65;;;14.70;99.90;;;;;;5026105;27;20190;-84
2023/07/24 06:13:19;;;;;;;9.32;5.95;;;14.60;99.90;;;;;;5037504;28;20202;-84
2023/07/24 06:15:48;;;;;;;9.52;5.85;;;14.70;99.90;;;;;;5021981;28;20627;-85
2023/07/24 06:18:16;;;;;;;8.23;5.35;;;14.70;99.90;;;;;;5023708;28;20194;-83
2023/07/24 06:20:44;;;;;;;7.63;5.32;;;14.60;99.90;;;;;;5032527;28;20623;-84
2023/07/24 06:23:12;;;;;;;9.23;5.32;;;14.70;99.90;;;;;;5035213;28;20269;-84
2023/07/24 06:25:39;;;;;;;8.77;5.43;;;14.60;99.90;;;;;;5026387;28;20292;-84
2023/07/24 06:28:07;;;;;;;9.48;5.18;;;14.70;99.90;;;;;;5031394;28;20193;-84
2023/07/24 06:30:35;;;;;;;8.68;5.88;;;14.70;99.90;;;;;;5023574;28;20210;-84
2023/07/24 06:33:02;;;;;;;7.15;5.15;;;14.70;99.90;;;;;;5025453;28;20564;-84
2023/07/24 06:35:30;;;;;;;11.32;5.65;;;14.70;99.90;;;;;;5038349;28;20265;-84
2023/07/24 06:37:58;;;;;;;7.63;5.13;;;14.80;99.90;;;;;;5024031;28;20283;-84
2023/07/24 06:40:26;;;;;;;9.13;5.43;;;14.90;99.90;;;;;;5024777;28;20235;-84
2023/07/24 06:42:54;;;;;;;8.85;5.43;;;15.00;99.90;;;;;;5025990;28;20190;-84
2023/07/24 06:45:21;;;;;;;8.90;5.63;;;15.10;99.90;;;;;;5023938;28;20302;-84
2023/07/24 06:47:49;;;;;;;10.80;5.30;;;15.20;99.90;;;;;;5018141;28;20687;-84
2023/07/24 06:50:17;;;;;;;8.50;5.50;;;15.20;99.90;;;;;;5026221;28;20186;-84
2023/07/24 06:52:45;;;;;;;8.05;5.40;;;15.20;99.90;;;;;;5022615;28;20675;-83
2023/07/24 06:55:12;;;;;;;6.95;4.82;;;15.10;99.90;;;;;;5017646;28;20197;-84
2023/07/24 06:57:40;;;;;;;12.38;4.88;;;15.10;99.90;;;;;;5027428;28;20190;-84
2023/07/24 07:00:11;;;;;;;8.10;5.57;;;15.10;99.90;;;;;;5027272;28;20204;-84
2023/07/24 07:02:39;;;;;;;9.15;5.63;;;15.10;99.90;;;;;;5025016;28;20193;-83
2023/07/24 07:05:08;;;;;;;8.68;4.72;;;15.20;99.90;;;;;;5014003;28;20186;-84
2023/07/24 07:07:36;;;;;;;7.32;4.30;;;15.30;99.90;;;;;;5025267;28;20178;-85
2023/07/24 07:10:05;;;;;;;8.80;5.30;;;15.30;99.90;;;;;;5028233;28;20217;-85
2023/07/24 07:12:32;;;;;;;6.30;4.53;;;15.20;99.90;;;;;;5026390;28;20208;-85
2023/07/24 07:15:00;;;;;;;8.77;5.20;;;15.20;99.90;;;;;;5025389;28;20193;-85
2023/07/24 07:17:28;;;;;;;7.97;4.88;;;15.30;99.90;;;;;;5018608;28;20205;-84
2023/07/24 07:19:57;;;;;;;7.65;5.13;;;15.30;99.90;;;;;;5025444;28;20236;-85
2023/07/24 07:22:25;;;;;;;9.52;5.47;;;15.30;99.90;;;;;;5026830;28;20198;-84
2023/07/24 07:24:53;;;;;;;7.85;5.38;;;15.30;99.90;;;;;;4999538;28;20196;-84
2023/07/24 07:27:20;;;;;;;8.13;4.88;;;15.30;99.90;;;;;;5030319;28;20750;-83
2023/07/24 07:29:48;;;;;;;9.00;5.55;;;15.20;99.90;;;;;;5021991;28;20736;-84
2023/07/24 07:32:16;;;;;;;7.50;5.32;;;15.20;99.90;;;;;;5017007;28;20189;-85
2023/07/24 07:34:44;;;;;;;8.23;5.38;;;15.30;99.90;;;;;;5091341;28;20277;-84
2023/07/24 07:37:12;;;;;;;7.03;5.13;;;15.30;99.90;;;;;;5026836;28;20617;-85
2023/07/24 07:39:41;;;;;;;7.68;4.53;;;15.30;99.90;;;;;;5027226;28;21152;-84
2023/07/24 07:42:10;;;;;;;7.93;4.90;;;15.30;99.90;;;;;;5041210;28;20217;-84
2023/07/24 07:44:46;;;;;;;7.80;4.93;;;15.40;99.90;;;;;;5026161;28;20233;-84
2023/07/24 07:47:15;;;;;;;8.68;5.05;;;15.40;99.90;;;;;;5024724;28;20434;-83
2023/07/24 07:49:42;;;;;;;7.72;4.50;;;15.50;99.90;;;;;;5026554;28;20221;-85
2023/07/24 07:52:10;;;;;;;8.65;5.07;;;15.50;99.90;;;;;;5022358;28;20182;-84
2023/07/24 07:54:38;;;;;;;8.02;4.72;;;15.40;99.90;;;;;;5110605;27;20202;-84
2023/07/24 07:57:05;;;;;;;6.18;4.43;;;15.50;99.90;;;;;;5023551;28;20182;-84
2023/07/24 07:59:34;;;;;;;7.93;5.38;;;15.50;99.90;;;;;;5023541;28;20679;-84
2023/07/24 08:02:04;;;;;;;7.88;5.18;;;15.50;99.90;;;;;;5023417;28;20279;-84
2023/07/24 08:04:33;;;;;;;7.47;4.85;;;15.50;99.90;;;;;;5021762;28;20197;-84
2023/07/24 08:07:01;;;;;;;8.45;6.38;;;15.50;99.90;;;;;;5025093;28;20231;-84
2023/07/24 08:09:29;;;;;;;8.02;5.20;;;15.50;99.90;;;;;;5025668;28;20702;-85
2023/07/24 08:11:57;;;;;;;7.60;5.13;;;15.50;99.90;;;;;;5038539;28;20194;-84
2023/07/24 08:14:25;;;;;;;9.20;6.30;;;15.60;99.90;;;;;;5024808;28;20186;-84
2023/07/24 08:16:53;;;;;;;9.77;6.80;;;15.70;99.90;;;;;;5001132;28;20290;-84
2023/07/24 08:19:20;;;;;;;11.95;7.30;;;15.70;99.90;;;;;;5024935;28;20186;-84
2023/07/24 08:21:48;;;;;;;9.45;6.60;;;15.80;99.90;;;;;;5008938;28;20186;-84
2023/07/24 08:24:16;;;;;;;10.02;7.03;;;15.70;99.90;;;;;;5026138;28;20218;-84
2023/07/24 08:26:44;;;;;;;12.45;7.88;;;15.70;99.90;;;;;;5026376;28;20190;-84
2023/07/24 08:29:12;;;;;;;11.98;7.53;;;15.70;99.90;;;;;;5026177;28;20298;-84
2023/07/24 08:31:40;;;;;;;9.90;7.05;;;15.50;99.90;;;;;;5024764;28;20811;-85
2023/07/24 08:34:07;;;;;;;11.32;8.02;;;15.60;99.90;;;;;;5026613;28;20279;-85
2023/07/24 08:36:37;;;;;;;11.65;7.75;;;15.60;99.90;;;;;;5023835;28;20546;-85
2023/07/24 08:39:04;;;;;;;11.15;7.47;;;15.70;99.90;;;;;;5040968;28;20269;-85
2023/07/24 08:41:34;;;;;;;11.80;8.10;;;15.70;99.90;;;;;;5007125;28;20317;-84
2023/07/24 08:44:02;;;;;;;12.73;8.43;;;15.80;99.90;;;;;;5023093;28;20226;-84
2023/07/24 08:46:30;;;;;;;12.88;8.30;;;15.90;99.90;;;;;;5025237;28;20186;-85
2023/07/24 08:48:58;;;;;;;13.73;8.25;;;16.00;99.90;;;;;;5031166;28;20186;-85
2023/07/24 08:51:26;;;;;;;10.40;5.95;;;16.40;99.90;;;;;;5034463;28;20583;-84
2023/07/24 08:53:54;;;;;;;8.98;6.47;;;16.30;99.90;;;;;;5030577;28;20201;-85
2023/07/24 08:56:22;;;;;;;11.68;7.18;;;16.20;99.90;;;;;;5007887;28;20706;-84
2023/07/24 08:58:50;;;;;;;15.23;7.15;;;16.20;99.90;;;;;;5007072;28;20256;-85
2023/07/24 09:01:18;;;;;;;9.00;6.60;;;16.10;99.90;;;;;;5024545;28;20325;-86
2023/07/24 09:03:45;;;;;;;10.70;6.78;;;16.00;99.90;;;;;;5023999;28;20194;-86
2023/07/24 09:06:13;;;;;;;9.63;6.80;;;16.00;99.90;;;;;;5034670;28;20194;-86
2023/07/24 09:08:43;;;;;;;10.93;6.82;;;15.90;99.90;;;;;;5005560;28;20269;-85
2023/07/24 09:11:14;;;;;;;9.05;5.97;;;16.00;99.90;;;;;;5018425;28;20178;-86
2023/07/24 09:13:43;;;;;;;10.48;5.88;;;16.00;99.90;;;;;;5027539;28;20560;-85
2023/07/24 09:16:25;;;;;;;8.25;5.78;;;16.20;99.90;;;;;;5027450;28;20206;-85
2023/07/24 09:18:53;;;;;;;8.35;6.00;;;16.20;99.90;;;;;;5032641;28;20186;-86
2023/07/24 09:21:29;;;;;;;9.88;5.47;;;16.30;99.90;;;;;;5029021;28;20289;-86
2023/07/24 09:23:58;;;;;;;10.30;5.82;;;16.30;99.90;;;;;;5028245;28;20186;-86
2023/07/24 09:26:25;;;;;;;8.15;5.78;;;16.30;99.90;;;;;;5042023;28;20196;-84
2023/07/24 09:28:55;;;;;;;10.13;5.68;;;16.30;99.90;;;;;;5033076;28;20198;-86
2023/07/24 09:31:33;;;;;;;10.45;6.60;;;16.30;99.90;;;;;;5028680;28;20201;-85
2023/07/24 09:34:02;;;;;;;11.43;6.90;;;16.30;99.90;;;;;;5028661;28;20686;-86
2023/07/24 09:36:38;;;;;;;9.43;6.78;;;16.20;99.90;;;;;;5027046;28;20190;-85
2023/07/24 09:39:10;;;;;;;11.10;6.38;;;16.20;99.90;;;;;;5028630;28;20200;-85
2023/07/24 09:41:39;;;;;;;11.70;6.97;;;16.20;99.90;;;;;;5028572;28;20208;-85
2023/07/24 09:44:08;;;;;;;11.43;6.80;;;16.20;99.90;;;;;;5032764;28;20238;-85
2023/07/24 09:46:36;;;;;;;14.10;7.20;;;16.10;99.90;;;;;;5027323;28;20706;-85
2023/07/24 09:49:14;;;;;;;12.38;6.70;;;16.10;99.90;;;;;;5026392;28;20198;-85
2023/07/24 09:51:47;;;;;;;11.85;7.70;;;16.10;99.90;;;;;;5036252;28;20656;-85
2023/07/24 09:54:28;;;;;;;10.77;7.00;;;16.10;99.90;;;;;;5027014;28;20221;-85
2023/07/24 09:56:57;;;;;;;10.52;6.97;;;16.20;99.90;;;;;;5025271;28;20205;-84
2023/07/24 09:59:42;;;;;;;12.85;8.50;;;16.40;99.90;;;;;;5028080;28;20190;-85
2023/07/24 10:02:11;;;;;;;12.68;8.25;;;16.60;99.90;;;;;;5035278;28;20186;-84
2023/07/24 10:04:40;;;;;;;11.20;6.47;;;16.90;99.90;;;;;;5025530;28;20298;-84
2023/07/24 10:07:09;;;;;;;10.73;6.85;;;17.10;99.90;;;;;;5027103;28;20181;-84
2023/07/24 10:09:38;;;;;;;11.82;6.88;;;17.30;99.90;;;;;;5016455;28;20258;-85
2023/07/24 10:12:06;;;;;;;11.27;6.93;;;17.50;99.90;;;;;;5028542;28;20199;-84
2023/07/24 10:14:35;;;;;;;9.82;6.55;;;17.30;99.90;;;;;;5043422;28;20194;-85
2023/07/24 10:17:04;;;;;;;8.63;6.25;;;17.20;99.90;;;;;;5028145;28;20178;-84
2023/07/24 10:19:45;;;;;;;11.77;6.03;;;17.30;99.90;;;;;;5028569;28;20197;-84
2023/07/24 10:22:19;;;;;;;7.68;5.78;;;17.40;99.90;;;;;;5024822;28;20209;-83
2023/07/24 10:24:47;;;;;;;8.65;5.53;;;17.50;99.90;;;;;;5024281;28;20191;-85
2023/07/24 10:27:15;;;;;;;9.57;5.30;;;17.40;99.90;;;;;;5008021;28;20202;-85
2023/07/24 10:29:43;;;;;;;8.77;5.72;;;17.40;99.90;;;;;;5029270;28;20194;-84
2023/07/24 10:32:18;;;;;;;7.90;5.50;;;17.30;99.90;;;;;;5028307;28;20196;-85
2023/07/24 10:34:55;;;;;;;8.93;5.22;;;17.30;99.90;;;;;;5037172;28;20213;-84
2023/07/24 10:37:32;;;;;;;6.85;5.25;;;17.30;99.90;;;;;;5027899;28;20190;-85
2023/07/24 10:40:00;;;;;;;8.90;5.57;;;17.40;99.90;;;;;;5028356;28;20220;-85
2023/07/24 10:42:29;;;;;;;8.43;5.60;;;17.50;99.90;;;;;;5028407;28;20232;-86
2023/07/24 10:45:07;;;;;;;8.43;5.82;;;17.40;99.90;;;;;;5023563;28;20253;-84
2023/07/24 10:47:35;;;;;;;9.52;5.28;;;17.40;99.90;;;;;;5026367;28;20194;-85
2023/07/24 10:50:04;;;;;;;7.63;4.70;;;17.40;99.90;;;;;;5020410;28;20313;-84
2023/07/24 10:52:35;;;;;;;10.35;5.32;;;17.40;99.90;;;;;;5027783;28;20186;-85
2023/07/24 10:55:06;;;;;;;8.00;5.72;;;17.60;99.90;;;;;;5026110;28;20655;-84
2023/07/24 10:57:34;;;;;;;6.68;4.75;;;17.60;99.90;;;;;;5031169;28;20285;-85
2023/07/24 11:00:02;;;;;;;8.73;4.72;;;17.60;99.90;;;;;;5026169;28;20206;-85
2023/07/24 11:02:30;;;;;;;8.30;4.38;;;17.60;99.90;;;;;;5031779;28;20268;-85
2023/07/24 11:05:00;;;;;;;6.07;4.32;;;17.50;99.90;;;;;;5024820;28;20213;-85
2023/07/24 11:07:32;;;;;;;6.55;4.68;;;17.50;99.90;;;;;;5025957;28;20266;-85
2023/07/24 11:10:00;;;;;;;7.53;4.40;;;17.60;99.90;;;;;;5025754;28;20209;-85
2023/07/24 11:12:30;;;;;;;6.53;3.90;;;17.60;99.90;;;;;;5017212;28;20190;-85
2023/07/24 11:14:58;;;;;;;6.18;3.85;;;17.50;99.90;;;;;;5021780;28;20234;-84
2023/07/24 11:17:40;;;;;;;8.63;4.95;;;17.40;99.90;;;;;;5009361;28;20195;-85
2023/07/24 11:20:10;;;;;;;9.98;4.68;;;17.20;99.90;;;;;;5025610;28;20208;-85
2023/07/24 11:22:43;;;;;;;6.72;4.68;;;17.10;99.90;;;;;;5026457;28;20305;-84
2023/07/24 11:25:11;;;;;;;9.43;4.57;;;17.00;99.90;;;;;;5035287;28;20486;-85
2023/07/24 11:27:43;;;;;;;7.88;4.32;;;17.00;99.90;;;;;;5025835;28;20181;-85
2023/07/24 11:30:12;;;;;;;7.40;4.75;;;16.90;99.90;;;;;;5031779;28;20728;-85
2023/07/24 11:32:40;;;;;;;6.68;4.35;;;16.90;99.90;;;;;;5031935;28;20271;-85
2023/07/24 11:35:09;;;;;;;7.03;4.43;;;16.90;99.90;;;;;;5023386;28;20664;-85
2023/07/24 11:37:37;;;;;;;6.78;4.18;;;16.80;99.90;;;;;;5025465;27;20645;-85
2023/07/24 11:40:10;;;;;;;9.73;4.10;;;16.80;99.90;;;;;;5032544;28;20573;-85
2023/07/24 11:42:43;;;;;;;7.28;3.85;;;16.70;99.90;;;;;;5021652;28;20190;-84
2023/07/24 11:45:12;;;;;;;6.22;3.97;;;16.80;99.90;;;;;;5034330;28;20230;-85
2023/07/24 11:47:53;;;;;;;9.55;4.55;;;16.80;99.90;;;;;;5024251;28;20304;-85
2023/07/24 11:50:23;;;;;;;6.95;4.13;;;16.80;99.90;;;;;;5004038;28;20191;-85
2023/07/24 11:52:55;;;;;;;6.47;4.05;;;16.70;99.90;;;;;;5017106;28;20198;-85
2023/07/24 11:55:33;;;;;;;6.18;4.10;;;16.70;99.90;;;;;;5022002;28;20182;-85
2023/07/24 11:58:03;;;;;;;6.90;4.10;;;16.70;99.90;;;;;;5021026;28;20182;-85
2023/07/24 12:00:33;;;;;;;5.85;3.60;;;16.70;99.90;;;;;;5035895;28;20873;-85
2023/07/24 12:03:04;;;;;;;6.63;3.95;;;16.70;99.90;;;;;;5022555;28;20178;-86
2023/07/24 12:05:41;;;;;;;6.68;4.45;;;16.60;99.90;;;;;;5025459;28;20574;-85
2023/07/24 12:08:10;;;;;;;7.97;4.15;;;16.60;99.90;;;;;;5023358;28;20178;-85
2023/07/24 12:10:40;;;;;;;6.40;4.47;;;16.60;99.90;;;;;;5024164;27;20197;-85
2023/07/24 12:13:08;;;;;;;9.48;4.72;;;16.50;99.90;;;;;;4997093;28;20198;-85
2023/07/24 12:15:37;;;;;;;8.55;5.07;;;16.50;99.90;;;;;;5019524;28;20193;-85
2023/07/24 12:18:05;;;;;;;6.90;4.82;;;16.20;99.90;;;;;;5025077;28;20671;-85
2023/07/24 12:20:34;;;;;;;7.88;4.50;;;16.20;99.90;;;;;;5029141;28;20599;-85
2023/07/24 12:23:02;;;;;;;8.10;4.95;;;16.20;99.90;;;;;;5033003;28;20181;-86
2023/07/24 12:25:31;;;;;;;10.80;5.32;;;16.20;99.90;;;;;;5007696;28;20678;-86
2023/07/24 12:27:59;;;;;;;11.45;5.88;;;16.20;99.90;;;;;;5025327;28;20190;-85
2023/07/24 12:30:27;;;;;;;10.05;5.18;;;16.20;99.90;;;;;;5026269;28;20269;-86
2023/07/24 12:32:54;;;;;;;7.03;4.65;;;16.20;99.90;;;;;;5041037;28;20202;-86
2023/07/24 12:35:23;;;;;;;10.43;5.45;;;16.10;99.90;;;;;;5029219;28;20182;-86
2023/07/24 12:37:51;;;;;;;6.60;4.72;;;16.20;99.90;;;;;;5005511;28;20199;-85
2023/07/24 12:40:23;;;;;;;8.05;5.63;;;16.20;99.90;;;;;;5017350;28;20681;-85
2023/07/24 12:42:57;;;;;;;11.80;5.65;;;16.20;99.90;;;;;;5024357;28;20193;-85
2023/07/24 12:45:32;;;;;;;9.20;5.25;;;16.10;99.90;;;;;;5040692;28;20198;-85
2023/07/24 12:48:00;;;;;;;8.98;5.72;;;16.00;99.90;;;;;;5037942;28;20202;-85
2023/07/24 12:50:30;;;;;;;9.30;5.65;;;16.00;99.90;;;;;;5005483;28;20202;-85